Time;durP1;ratioP1;P1;durP2;ratioP2;P2;SDS_P1;SDS_P2;PMS_P1;PMS_P2;Temp;Humidity;BMP_temperature;BMP_pressure;BME280_temperature;BME280_humidity;BME280_pressure;Samples;Min_cycle;Max_cycle;Signal;HPM_P1;HPM_P2
2022/04/27 00:02:41;;;;;;;11.05;3.80;;;;;;;9.37;100.00;102123.72;10158188;28;20058;-65
2022/04/27 00:07:38;;;;;;;11.13;3.78;;;;;;;9.21;100.00;102124.84;10168298;28;20109;-64
2022/04/27 00:12:36;;;;;;;12.90;4.22;;;;;;;9.02;100.00;102125.38;10157707;28;20166;-65
2022/04/27 00:17:34;;;;;;;11.43;4.03;;;;;;;8.92;100.00;102128.13;10166918;28;20105;-64
2022/04/27 00:22:30;;;;;;;11.95;4.30;;;;;;;8.92;100.00;102128.13;10157733;28;20162;-64
2022/04/27 00:27:28;;;;;;;8.93;3.88;;;;;;;8.78;100.00;102127.84;10193251;28;20578;-64
2022/04/27 00:32:24;;;;;;;8.57;3.60;;;;;;;8.75;100.00;102133.00;10182968;28;20138;-65
2022/04/27 00:37:21;;;;;;;10.70;4.00;;;;;;;8.64;100.00;102133.00;10190610;28;20054;-65
2022/04/27 00:42:21;;;;;;;10.27;3.78;;;;;;;8.57;100.00;102132.44;10177054;28;20054;-65
2022/04/27 00:47:19;;;;;;;9.98;3.90;;;;;;;8.38;100.00;102128.56;10190734;28;20132;-65
2022/04/27 00:52:16;;;;;;;12.55;3.88;;;;;;;8.37;100.00;102132.34;10168045;28;20142;-65
2022/04/27 00:57:13;;;;;;;10.95;3.97;;;;;;;8.41;100.00;102134.31;10184076;28;20066;-64
2022/04/27 01:02:09;;;;;;;11.25;5.18;;;;;;;8.45;100.00;102133.75;10158992;28;20136;-64
2022/04/27 01:07:07;;;;;;;11.93;4.22;;;;;;;8.33;100.00;102131.25;10192819;28;20136;-64
2022/04/27 01:12:04;;;;;;;12.13;4.53;;;;;;;8.35;100.00;102134.53;10194237;28;20527;-64
2022/04/27 01:17:00;;;;;;;9.10;4.68;;;;;;;8.23;100.00;102143.75;10193439;28;20463;-64
2022/04/27 01:21:57;;;;;;;10.13;4.10;;;;;;;8.27;100.00;102148.69;10194130;28;20046;-64
2022/04/27 01:26:53;;;;;;;11.73;4.78;;;;;;;8.15;100.00;102141.56;10193625;28;20084;-65
2022/04/27 01:31:52;;;;;;;12.45;4.53;;;;;;;8.23;100.00;102149.19;10194021;28;20064;-65
2022/04/27 01:36:48;;;;;;;13.05;4.47;;;;;;;8.17;100.00;102152.19;10192788;28;20070;-64
2022/04/27 01:41:45;;;;;;;10.48;4.03;;;;;;;8.04;100.00;102156.22;10193647;28;20080;-64
2022/04/27 01:46:42;;;;;;;10.82;4.30;;;;;;;7.93;100.00;102168.13;10193654;28;20133;-64
2022/04/27 01:56:53;;;;;;;10.30;4.68;;;;;;;7.91;100.00;102165.66;10192990;28;20074;-64
2022/04/27 02:01:50;;;;;;;13.43;4.38;;;;;;;7.92;100.00;102169.22;10191482;28;20133;-65
2022/04/27 02:06:47;;;;;;;12.52;5.32;;;;;;;7.80;100.00;102164.00;10193354;28;20049;-64
2022/04/27 02:11:43;;;;;;;8.48;3.40;;;;;;;7.76;100.00;102171.03;10171460;28;20479;-65
2022/04/27 02:16:40;;;;;;;11.63;4.30;;;;;;;7.57;100.00;102178.81;10182028;28;20076;-64
2022/04/27 02:21:36;;;;;;;11.10;4.47;;;;;;;7.67;100.00;102184.31;10201311;28;20053;-65
2022/04/27 02:26:33;;;;;;;10.60;4.60;;;;;;;7.64;100.00;102190.31;10187553;28;20073;-64
2022/04/27 02:31:29;;;;;;;10.02;4.07;;;;;;;7.61;100.00;102195.44;10161801;28;20058;-64
2022/04/27 02:36:26;;;;;;;8.95;4.05;;;;;;;7.52;100.00;102195.09;10188074;28;20496;-65
2022/04/27 02:41:22;;;;;;;11.25;4.22;;;;;;;7.45;100.00;102186.34;10201283;28;20050;-64
2022/04/27 02:46:19;;;;;;;14.43;3.85;;;;;;;7.49;100.00;102187.47;10175681;28;20542;-65
2022/04/27 02:56:30;;;;;;;9.02;4.03;;;;;;;7.54;100.00;102195.66;10188063;28;20048;-65
2022/04/27 03:01:27;;;;;;;8.50;4.10;;;;;;;7.48;100.00;102196.72;10176862;28;20422;-64
2022/04/27 03:06:23;;;;;;;9.07;3.72;;;;;;;7.46;100.00;102193.44;10198566;28;20050;-64
2022/04/27 03:11:20;;;;;;;14.02;4.25;;;;;;;7.27;100.00;102204.72;10176704;28;20058;-64
2022/04/27 03:16:16;;;;;;;9.60;3.75;;;;;;;7.35;100.00;102204.22;10185872;28;20488;-65
2022/04/27 03:21:13;;;;;;;7.45;3.83;;;;;;;7.35;100.00;102209.66;10199534;28;20162;-64
2022/04/27 03:26:09;;;;;;;11.02;4.53;;;;;;;7.48;100.00;102202.16;10199003;28;20507;-64
2022/04/27 03:31:06;;;;;;;12.90;4.55;;;;;;;7.21;100.00;102211.19;10197720;28;20105;-64
2022/04/27 03:36:03;;;;;;;9.60;4.07;;;;;;;7.37;100.00;102217.59;10185162;28;20097;-64
2022/04/27 03:40:59;;;;;;;16.95;4.78;;;;;;;7.35;100.00;102220.53;10159156;28;20116;-64
2022/04/27 03:45:59;;;;;;;12.75;4.10;;;;;;;7.37;100.00;102223.03;10182048;28;20499;-64
2022/04/27 03:50:56;;;;;;;14.25;4.20;;;;;;;7.35;100.00;102231.44;10198643;28;20073;-64
2022/04/27 03:55:52;;;;;;;12.48;4.63;;;;;;;7.35;100.00;102234.16;10190022;28;20053;-65
2022/04/27 04:00:49;;;;;;;12.23;4.30;;;;;;;7.19;100.00;102248.69;10188763;28;20138;-64
2022/04/27 04:05:45;;;;;;;15.32;4.70;;;;;;;7.07;100.00;102261.66;10179944;28;20088;-64
2022/04/27 04:10:42;;;;;;;15.18;4.85;;;;;;;7.12;100.00;102264.41;10187942;28;20070;-64
2022/04/27 04:15:38;;;;;;;9.75;4.57;;;;;;;7.02;100.00;102264.31;10177814;28;20069;-64
2022/04/27 04:20:35;;;;;;;13.50;4.93;;;;;;;6.98;100.00;102264.00;10166594;28;20050;-64
2022/04/27 04:30:46;;;;;;;13.40;5.63;;;;;;;7.20;100.00;102277.56;10165817;28;20078;-64
2022/04/27 04:35:43;;;;;;;8.05;4.30;;;;;;;7.12;100.00;102288.88;10167542;28;20054;-65
2022/04/27 04:40:39;;;;;;;11.80;4.18;;;;;;;7.16;100.00;102287.31;10156578;28;20130;-64
2022/04/27 04:45:36;;;;;;;14.85;4.88;;;;;;;7.31;100.00;102290.19;10177611;28;20053;-64
2022/04/27 04:50:32;;;;;;;15.20;5.68;;;;;;;7.29;100.00;102292.34;10196416;28;20065;-65
2022/04/27 04:55:29;;;;;;;11.07;4.25;;;;;;;7.44;100.00;102294.38;10195413;28;20527;-65
2022/04/27 05:00:25;;;;;;;10.52;4.15;;;;;;;7.30;100.00;102298.59;10188278;28;20116;-64
2022/04/27 05:05:22;;;;;;;11.68;4.50;;;;;;;7.39;100.00;102299.78;10174711;28;20475;-65
2022/04/27 05:10:18;;;;;;;11.27;5.22;;;;;;;7.51;100.00;102310.50;10177987;28;20088;-64
2022/04/27 05:15:15;;;;;;;11.60;4.28;;;;;;;7.55;100.00;102311.63;10173149;28;20081;-65
2022/04/27 05:20:11;;;;;;;17.42;4.80;;;;;;;7.67;100.00;102312.28;10175545;28;20051;-64
2022/04/27 05:25:09;;;;;;;12.63;4.57;;;;;;;7.76;100.00;102312.63;10172131;28;20129;-65
2022/04/27 05:35:21;;;;;;;13.10;5.82;;;;;;;7.84;100.00;102330.38;10173520;28;20122;-64
2022/04/27 05:40:18;;;;;;;10.35;4.50;;;;;;;7.82;100.00;102333.38;10169599;28;20154;-65
2022/04/27 05:45:14;;;;;;;11.55;4.65;;;;;;;7.84;100.00;102338.56;10171897;28;20050;-64
2022/04/27 05:50:11;;;;;;;14.55;4.55;;;;;;;7.76;100.00;102340.69;10159696;28;20088;-64
2022/04/27 05:55:07;;;;;;;12.10;4.50;;;;;;;7.96;100.00;102350.09;10169509;28;20050;-64
2022/04/27 06:00:04;;;;;;;13.55;4.50;;;;;;;8.14;100.00;102346.97;10155343;28;20105;-64
2022/04/27 06:05:01;;;;;;;11.68;4.68;;;;;;;8.42;100.00;102347.72;10166600;28;20500;-65
2022/04/27 06:09:57;;;;;;;11.45;4.35;;;;;;;8.58;100.00;102360.34;10153680;28;20042;-64
2022/04/27 06:14:54;;;;;;;9.77;3.95;;;;;;;8.68;100.00;102367.78;10168715;28;20069;-64
2022/04/27 06:19:50;;;;;;;7.43;4.53;;;;;;;8.74;100.00;102368.63;10192457;28;20080;-64
2022/04/27 06:24:46;;;;;;;12.85;3.92;;;;;;;9.03;100.00;102391.69;10181917;28;20125;-64
2022/04/27 06:29:43;;;;;;;11.90;4.40;;;;;;;9.12;100.00;102389.28;10192925;28;20133;-65
2022/04/27 06:34:39;;;;;;;10.73;5.30;;;;;;;9.21;100.00;102386.81;10192542;28;20085;-65
2022/04/27 06:39:38;;;;;;;15.57;4.50;;;;;;;9.13;100.00;102395.53;10191330;28;20050;-65
2022/04/27 06:44:35;;;;;;;8.55;4.07;;;;;;;9.25;100.00;102401.59;10165346;28;20050;-65
2022/04/27 06:49:32;;;;;;;10.77;3.83;;;;;;;9.46;100.00;102395.09;10185049;28;20133;-65
2022/04/27 06:54:28;;;;;;;9.27;3.60;;;;;;;9.57;100.00;102406.88;10163835;28;20100;-65
2022/04/27 06:59:25;;;;;;;9.63;3.85;;;;;;;9.32;100.00;102410.34;10173456;28;20077;-65
2022/04/27 07:04:22;;;;;;;8.88;3.10;;;;;;;9.52;100.00;102414.25;10166239;28;20085;-64
2022/04/27 07:09:18;;;;;;;10.77;4.22;;;;;;;9.66;100.00;102415.34;10178491;28;20108;-64
2022/04/27 07:14:16;;;;;;;11.60;4.20;;;;;;;9.70;100.00;102421.94;10169121;28;20177;-65
2022/04/27 07:19:13;;;;;;;11.63;4.00;;;;;;;9.77;100.00;102417.03;10168616;28;20054;-64
2022/04/27 07:24:09;;;;;;;13.45;3.30;;;;;;;9.96;100.00;102421.97;10168228;28;20144;-65
2022/04/27 07:29:08;;;;;;;11.00;3.22;;;;;;;10.00;100.00;102432.09;10168180;28;20081;-65
2022/04/27 07:34:05;;;;;;;11.18;2.70;;;;;;;10.05;100.00;102431.25;10166105;28;20049;-65
2022/04/27 07:39:01;;;;;;;9.45;3.13;;;;;;;10.08;100.00;102438.91;10158722;28;20086;-66
2022/04/27 07:43:57;;;;;;;10.02;2.58;;;;;;;10.03;100.00;102436.19;10163791;28;20081;-65
2022/04/27 07:48:55;;;;;;;11.75;2.50;;;;;;;10.13;100.00;102441.63;10158652;28;20073;-65
2022/04/27 07:53:52;;;;;;;6.05;2.30;;;;;;;10.12;100.00;102445.47;10164974;28;20464;-64
2022/04/27 07:58:48;;;;;;;7.65;1.92;;;;;;;10.20;100.00;102453.13;10197534;28;20423;-64
2022/04/27 08:03:44;;;;;;;8.05;2.58;;;;;;;10.36;100.00;102461.38;10181664;28;20096;-65
2022/04/27 08:08:41;;;;;;;6.85;2.50;;;;;;;10.58;100.00;102464.63;10197090;28;20537;-65
2022/04/27 08:13:38;;;;;;;8.45;2.65;;;;;;;10.49;100.00;102466.28;10191924;28;20283;-65
2022/04/27 08:18:35;;;;;;;11.90;2.40;;;;;;;10.86;100.00;102455.03;10192710;28;20050;-66
2022/04/27 08:23:34;;;;;;;8.23;2.55;;;;;;;11.15;100.00;102460.66;10161305;28;20208;-64
2022/04/27 08:28:32;;;;;;;9.38;2.40;;;;;;;11.29;99.92;102462.81;10191315;28;20046;-65
2022/04/27 08:33:29;;;;;;;9.20;2.80;;;;;;;11.28;99.39;102477.59;10160102;28;20566;-65
2022/04/27 08:38:27;;;;;;;10.32;2.55;;;;;;;11.38;99.81;102472.09;10180665;28;20090;-64
2022/04/27 08:43:23;;;;;;;10.35;2.60;;;;;;;11.50;100.00;102469.84;10159137;28;20046;-65
2022/04/27 08:48:21;;;;;;;6.85;2.38;;;;;;;11.62;99.76;102476.91;10162992;28;20129;-65
2022/04/27 08:53:18;;;;;;;7.80;2.40;;;;;;;11.74;100.00;102480.13;10158024;28;20063;-65
2022/04/27 08:58:16;;;;;;;9.10;2.95;;;;;;;11.62;99.70;102482.38;10159371;28;20058;-64
2022/04/27 09:03:36;;;;;;;10.20;2.63;;;;;;;11.52;97.48;102492.28;10160248;28;20048;-65
2022/04/27 09:08:44;;;;;;;6.40;2.20;;;;;;;11.53;97.43;102480.25;10194786;28;20100;-65
2022/04/27 09:13:45;;;;;;;5.97;2.40;;;;;;;11.44;93.41;102487.41;10171452;28;20049;-65
2022/04/27 09:24:04;;;;;;;8.43;2.83;;;;;;;12.08;92.54;102469.25;10162891;28;20129;-65
2022/04/27 09:29:03;;;;;;;7.18;2.55;;;;;;;12.51;93.14;102465.88;10208691;28;20042;-65
2022/04/27 09:34:02;;;;;;;11.38;2.80;;;;;;;12.67;90.97;102475.63;10194256;28;20116;-65
2022/04/27 09:38:58;;;;;;;8.35;2.70;;;;;;;12.92;84.81;102465.47;10180093;28;20062;-65
2022/04/27 09:43:54;;;;;;;9.10;2.85;;;;;;;13.07;82.42;102468.06;10160591;28;20475;-65
2022/04/27 09:49:14;;;;;;;11.35;2.92;;;;;;;13.06;82.87;102471.91;10167824;28;20132;-65
2022/04/27 09:54:34;;;;;;;8.98;2.80;;;;;;;13.64;80.68;102466.25;10165429;28;20092;-64
2022/04/27 09:59:34;;;;;;;10.27;3.13;;;;;;;13.37;75.86;102471.59;10159741;28;20101;-65
2022/04/27 10:04:31;;;;;;;8.90;3.20;;;;;;;13.88;73.44;102470.91;10160691;28;20048;-64
2022/04/27 10:09:29;;;;;;;5.95;2.90;;;;;;;15.22;64.24;102464.72;10153467;28;20050;-65
2022/04/27 10:14:39;;;;;;;5.93;2.90;;;;;;;14.44;67.22;102464.50;10157889;28;20089;-64
2022/04/27 10:19:35;;;;;;;8.38;3.33;;;;;;;14.42;70.84;102469.47;10152547;28;20077;-65
2022/04/27 10:24:41;;;;;;;7.95;3.33;;;;;;;16.09;65.31;102460.06;10165073;28;20057;-65
2022/04/27 10:29:38;;;;;;;7.85;3.13;;;;;;;16.25;59.39;102456.94;10191190;28;20123;-64
2022/04/27 10:34:35;;;;;;;6.57;3.10;;;;;;;16.91;54.57;102455.19;10165579;28;20089;-65
2022/04/27 10:39:32;;;;;;;9.70;3.28;;;;;;;18.36;51.17;102455.25;10189088;28;20570;-65
2022/04/27 10:44:50;;;;;;;6.35;2.65;;;;;;;19.16;47.01;102449.91;10171945;28;20061;-65
2022/04/27 10:50:08;;;;;;;7.07;2.30;;;;;;;18.23;46.22;102468.91;10171368;28;20130;-65
2022/04/27 10:55:05;;;;;;;7.25;2.67;;;;;;;17.52;45.58;102471.16;10167425;28;20050;-65
2022/04/27 11:00:05;;;;;;;7.22;2.70;;;;;;;18.11;43.97;102477.09;10160968;28;20054;-65
2022/04/27 11:05:21;;;;;;;7.25;3.33;;;;;;;18.49;42.60;102481.91;10178744;28;20419;-65
2022/04/27 11:10:21;;;;;;;4.93;2.20;;;;;;;19.12;38.31;102474.72;10199135;28;20099;-65
2022/04/27 11:15:21;;;;;;;7.25;2.55;;;;;;;18.35;40.36;102481.28;10195098;28;20131;-65
2022/04/27 11:20:32;;;;;;;7.00;2.10;;;;;;;18.75;38.44;102481.03;10199447;28;20050;-65
2022/04/27 11:25:36;;;;;;;5.47;2.20;;;;;;;17.51;40.61;102486.94;10186147;28;20097;-65
2022/04/27 11:30:33;;;;;;;6.63;2.70;;;;;;;15.46;43.57;102499.53;10190614;28;20054;-65
2022/04/27 11:35:47;;;;;;;7.80;2.63;;;;;;;15.57;45.55;102487.13;10178864;28;20073;-65
2022/04/27 11:40:44;;;;;;;5.13;2.05;;;;;;;15.93;44.60;102489.94;10172738;28;20487;-65
2022/04/27 11:45:40;;;;;;;5.47;2.15;;;;;;;15.43;47.51;102502.88;10179153;28;20124;-64
2022/04/27 11:50:42;;;;;;;6.68;2.55;;;;;;;15.33;49.30;102501.97;10171825;28;20066;-65
2022/04/27 11:55:39;;;;;;;6.57;2.72;;;;;;;15.76;48.42;102493.38;10179105;28;20073;-65
2022/04/27 12:00:35;;;;;;;8.52;2.42;;;;;;;15.91;48.00;102491.38;10172905;28;20472;-64
2022/04/27 12:05:37;;;;;;;6.97;2.60;;;;;;;16.37;46.19;102487.53;10176434;28;20129;-64
2022/04/27 12:10:43;;;;;;;8.18;2.65;;;;;;;16.52;47.41;102484.38;10157004;28;20065;-65
2022/04/27 12:15:48;;;;;;;7.63;2.50;;;;;;;17.04;45.52;102475.56;10161195;28;20058;-65
2022/04/27 12:20:46;;;;;;;8.30;2.70;;;;;;;17.36;43.86;102485.44;10158319;28;20049;-66
2022/04/27 12:26:00;;;;;;;6.57;2.40;;;;;;;18.02;39.53;102473.50;10178916;28;20050;-63
2022/04/27 12:31:00;;;;;;;8.13;2.15;;;;;;;18.72;38.55;102472.22;10190616;28;20050;-62
2022/04/27 12:41:37;;;;;;;6.38;2.20;;;;;;;18.21;37.68;102473.16;10173671;28;20505;-64
2022/04/27 12:46:34;;;;;;;4.40;2.30;;;;;;;18.05;39.92;102461.78;10183486;28;20057;-62
2022/04/27 12:51:35;;;;;;;5.63;2.70;;;;;;;17.12;38.48;102473.97;10156105;28;20078;-64
2022/04/27 12:56:39;;;;;;;6.45;2.45;;;;;;;16.94;39.65;102467.56;10172018;28;20050;-63
2022/04/27 13:01:36;;;;;;;6.57;2.47;;;;;;;16.81;41.00;102463.78;10155999;28;20073;-62
2022/04/27 13:06:33;;;;;;;6.05;3.00;;;;;;;16.93;41.01;102466.75;10184236;28;20100;-63
2022/04/27 13:16:44;;;;;;;11.32;2.50;;;;;;;17.15;40.93;102462.25;10186240;28;20080;-62
2022/04/27 13:21:41;;;;;;;6.13;3.40;;;;;;;16.63;41.26;102462.84;10184631;28;20057;-63
2022/04/27 13:26:38;;;;;;;7.93;3.05;;;;;;;16.35;43.33;102462.19;10183810;28;20073;-62
2022/04/27 13:31:34;;;;;;;5.43;2.55;;;;;;;16.47;42.24;102458.84;10194050;28;20050;-62
2022/04/27 13:36:31;;;;;;;5.95;2.60;;;;;;;16.78;42.25;102450.56;10193773;28;20100;-62
2022/04/27 13:41:27;;;;;;;5.45;2.83;;;;;;;17.13;41.89;102448.78;10178673;28;20089;-62
2022/04/27 13:46:24;;;;;;;6.50;3.03;;;;;;;17.04;40.69;102457.03;10181424;28;20516;-63
2022/04/27 13:51:22;;;;;;;6.68;2.45;;;;;;;16.77;40.45;102457.22;10170600;28;20046;-63
2022/04/27 13:56:18;;;;;;;5.88;2.55;;;;;;;17.01;40.14;102460.47;10180128;28;20077;-62
2022/04/27 14:01:15;;;;;;;6.22;3.00;;;;;;;16.95;39.81;102453.44;10157353;28;20054;-61
2022/04/27 14:06:11;;;;;;;5.45;2.50;;;;;;;17.16;41.71;102447.31;10178958;28;20423;-61
2022/04/27 14:13:10;;;;;;;5.10;2.65;;;;;;;17.35;44.42;102442.31;10164623;28;20086;-61
2022/04/27 14:21:40;;;;;;;8.63;2.97;;;;;;;17.03;40.99;102460.94;10156229;28;20070;-62
2022/04/27 14:26:37;;;;;;;7.85;2.63;;;;;;;16.30;42.52;102446.56;10175445;28;20042;-62
2022/04/27 14:31:34;;;;;;;6.75;3.40;;;;;;;16.00;43.40;102456.41;10153081;28;20137;-61
2022/04/27 14:36:30;;;;;;;7.60;3.60;;;;;;;15.47;44.83;102454.28;10155217;28;20115;-62
2022/04/27 14:41:27;;;;;;;8.27;3.33;;;;;;;15.69;45.17;102450.78;10153300;28;20508;-61
2022/04/27 14:46:23;;;;;;;5.90;2.90;;;;;;;15.63;44.67;102461.09;10180194;28;20097;-61
2022/04/27 14:51:20;;;;;;;11.93;3.28;;;;;;;15.70;44.19;102442.22;10193601;28;20046;-62
2022/04/27 14:56:17;;;;;;;6.55;2.80;;;;;;;16.10;44.20;102450.63;10183408;28;20527;-62
2022/04/27 15:01:13;;;;;;;6.32;2.90;;;;;;;16.19;43.31;102454.28;10187662;28;20408;-62
2022/04/27 15:06:10;;;;;;;12.88;4.32;;;;;;;16.12;43.85;102453.91;10177556;28;20125;-61
2022/04/27 15:11:07;;;;;;;6.03;3.15;;;;;;;16.30;43.34;102459.56;10176860;28;20101;-61
2022/04/27 15:16:04;;;;;;;8.63;3.00;;;;;;;16.33;43.79;102447.88;10176665;28;20046;-62
2022/04/27 15:26:16;;;;;;;7.57;3.00;;;;;;;16.31;43.12;102455.66;10181257;28;20670;-61
2022/04/27 15:31:13;;;;;;;6.70;3.40;;;;;;;16.18;44.00;102454.59;10163632;28;20109;-61
2022/04/27 15:36:09;;;;;;;6.22;3.10;;;;;;;16.52;42.99;102462.28;10178864;28;20046;-62
2022/04/27 15:41:06;;;;;;;10.73;3.80;;;;;;;16.48;42.91;102457.72;10158965;28;20050;-61
2022/04/27 15:46:06;;;;;;;7.22;3.08;;;;;;;16.38;43.41;102458.78;10178768;28;20536;-62
2022/04/27 15:51:03;;;;;;;5.90;3.25;;;;;;;15.84;43.67;102466.19;10159053;28;20447;-61
2022/04/27 15:56:03;;;;;;;8.32;3.67;;;;;;;16.19;44.31;102462.56;10162263;28;20056;-62
2022/04/27 16:01:01;;;;;;;7.43;3.80;;;;;;;16.80;43.15;102462.13;10158525;28;20057;-62
2022/04/27 16:05:58;;;;;;;9.52;3.88;;;;;;;17.38;41.58;102474.88;10180910;28;20116;-62
2022/04/27 16:10:55;;;;;;;5.00;3.70;;;;;;;17.54;41.79;102469.69;10198223;28;20100;-62
2022/04/27 16:15:51;;;;;;;7.45;3.70;;;;;;;17.73;40.40;102472.16;10175635;28;20459;-62
2022/04/27 16:26:04;;;;;;;9.05;3.53;;;;;;;18.83;38.52;102474.69;10181894;28;20069;-62
2022/04/27 16:31:01;;;;;;;7.47;3.15;;;;;;;19.11;36.71;102475.84;10193340;28;20401;-62
2022/04/27 16:35:57;;;;;;;6.95;3.90;;;;;;;19.64;36.89;102481.09;10180025;28;20407;-62
2022/04/27 16:40:54;;;;;;;10.52;3.65;;;;;;;20.00;35.98;102476.94;10179250;28;20053;-61
2022/04/27 16:46:10;;;;;;;4.85;2.80;;;;;;;20.47;35.24;102479.41;10181283;28;20073;-62
2022/04/27 16:51:08;;;;;;;10.57;2.92;;;;;;;20.68;34.57;102484.94;10159343;28;20061;-61
2022/04/27 16:56:05;;;;;;;6.68;3.20;;;;;;;20.71;34.41;102482.28;10165724;28;20565;-62
2022/04/27 17:01:02;;;;;;;5.65;2.83;;;;;;;19.45;35.49;102493.47;10155607;28;20078;-63
2022/04/27 17:06:02;;;;;;;7.10;3.42;;;;;;;19.00;35.72;102496.78;10178497;28;20046;-61
2022/04/27 17:10:59;;;;;;;6.50;2.72;;;;;;;18.80;37.24;102508.56;10196538;28;20105;-61
2022/04/27 17:15:57;;;;;;;7.97;2.97;;;;;;;18.45;37.93;102497.53;10180244;28;20156;-64
2022/04/27 17:20:54;;;;;;;8.15;3.75;;;;;;;17.56;40.09;102499.78;10180590;28;20050;-62
2022/04/27 17:31:05;;;;;;;8.55;3.38;;;;;;;16.58;42.29;102513.50;10163420;28;20050;-61
2022/04/27 17:36:03;;;;;;;11.07;2.67;;;;;;;16.34;44.16;102515.78;10154987;28;20066;-63
2022/04/27 17:41:00;;;;;;;10.02;2.72;;;;;;;15.76;45.02;102515.44;10154421;28;20058;-62
2022/04/27 17:45:57;;;;;;;9.93;2.50;;;;;;;15.43;46.63;102528.50;10157328;28;20178;-62
2022/04/27 17:50:54;;;;;;;7.50;3.15;;;;;;;15.04;49.58;102520.72;10154049;28;20046;-63
2022/04/27 17:55:51;;;;;;;6.43;2.45;;;;;;;14.97;49.08;102534.06;10176558;28;20495;-63
2022/04/27 18:00:49;;;;;;;6.97;2.55;;;;;;;14.67;51.17;102530.75;10193687;28;20149;-62
2022/04/27 18:05:46;;;;;;;7.32;2.78;;;;;;;14.38;52.81;102544.69;10192846;28;20050;-62
2022/04/27 18:10:45;;;;;;;12.60;3.05;;;;;;;14.41;54.19;102544.91;10189700;28;20054;-61
2022/04/27 18:15:47;;;;;;;5.80;1.70;;;;;;;13.99;56.71;102554.88;10175374;28;20058;-62
2022/04/27 18:20:44;;;;;;;6.93;1.92;;;;;;;13.73;60.78;102557.13;10187777;28;20054;-62
2022/04/27 18:25:41;;;;;;;8.80;2.42;;;;;;;13.70;60.83;102562.44;10174831;28;20132;-62
2022/04/27 18:30:38;;;;;;;9.32;2.28;;;;;;;13.46;63.72;102568.75;10154432;28;20498;-61
2022/04/27 18:35:36;;;;;;;12.88;3.40;;;;;;;13.45;64.50;102580.84;10156218;28;20092;-62
2022/04/27 18:40:36;;;;;;;12.40;3.13;;;;;;;13.22;67.83;102577.75;10152923;28;20126;-63
2022/04/27 18:50:48;;;;;;;9.50;3.55;;;;;;;12.85;76.89;102592.09;10193296;28;20054;-61
2022/04/27 18:55:44;;;;;;;7.80;2.28;;;;;;;12.67;81.00;102601.88;10191533;28;20046;-62
2022/04/27 19:00:41;;;;;;;10.45;2.70;;;;;;;12.50;84.31;102601.44;10196493;28;20566;-62
2022/04/27 19:05:37;;;;;;;8.05;2.67;;;;;;;12.35;87.05;102610.59;10188437;28;20046;-61
2022/04/27 19:10:34;;;;;;;19.92;2.65;;;;;;;12.15;89.14;102611.50;10211011;28;20157;-62
2022/04/27 19:15:30;;;;;;;10.13;2.88;;;;;;;12.12;90.93;102623.06;10180375;28;20042;-61
2022/04/27 19:20:27;;;;;;;12.27;3.65;;;;;;;12.12;91.32;102625.81;10190690;28;20065;-61
2022/04/27 19:25:23;;;;;;;12.88;3.35;;;;;;;11.98;92.85;102623.66;10179479;28;20070;-62
2022/04/27 19:30:21;;;;;;;12.00;2.72;;;;;;;11.97;93.09;102622.03;10198139;28;20081;-62
2022/04/27 19:35:18;;;;;;;11.27;2.40;;;;;;;11.75;95.12;102629.75;10178024;28;20451;-63
2022/04/27 19:40:16;;;;;;;14.93;3.63;;;;;;;11.81;95.57;102639.56;10163374;28;20051;-62
2022/04/27 19:45:12;;;;;;;10.88;3.50;;;;;;;11.61;97.61;102634.19;10176705;28;20499;-61
2022/04/27 19:50:09;;;;;;;12.90;4.05;;;;;;;11.29;100.00;102649.03;10159501;28;20101;-62
2022/04/27 19:55:06;;;;;;;12.23;3.45;;;;;;;11.29;100.00;102654.50;10165532;28;20496;-62
2022/04/27 20:00:08;;;;;;;12.60;3.28;;;;;;;11.06;100.00;102661.34;10158907;28;20132;-63
2022/04/27 20:05:06;;;;;;;10.90;3.53;;;;;;;10.81;100.00;102667.63;10174966;28;20119;-62
2022/04/27 20:10:05;;;;;;;9.90;3.20;;;;;;;10.83;100.00;102673.66;10198115;28;20076;-62
2022/04/27 20:15:03;;;;;;;10.32;2.20;;;;;;;10.79;100.00;102673.38;10197996;28;20053;-62
2022/04/27 20:20:00;;;;;;;10.13;2.67;;;;;;;10.71;100.00;102671.97;10198046;28;20463;-63
2022/04/27 20:24:56;;;;;;;12.45;2.58;;;;;;;10.39;100.00;102671.38;10179955;28;20100;-62
2022/04/27 20:29:53;;;;;;;12.27;3.35;;;;;;;10.40;100.00;102686.69;10197086;28;20062;-62
2022/04/27 20:34:51;;;;;;;11.25;2.70;;;;;;;10.38;100.00;102675.19;10173735;28;20072;-62
2022/04/27 20:39:48;;;;;;;12.57;2.47;;;;;;;10.30;100.00;102677.38;10195815;28;20229;-62
2022/04/27 20:44:45;;;;;;;11.68;3.53;;;;;;;10.31;100.00;102684.47;10170624;28;20132;-63
2022/04/27 20:49:41;;;;;;;9.88;2.72;;;;;;;10.32;100.00;102691.56;10190364;28;20046;-62
2022/04/27 20:54:38;;;;;;;7.63;2.08;;;;;;;10.19;100.00;102692.06;10169317;28;20064;-63
2022/04/27 20:59:35;;;;;;;9.75;2.35;;;;;;;10.22;100.00;102696.16;10195366;28;20415;-66
2022/04/27 21:04:33;;;;;;;12.77;3.25;;;;;;;10.08;100.00;102695.81;10196219;28;20108;-63
2022/04/27 21:09:30;;;;;;;13.95;2.72;;;;;;;9.86;100.00;102694.09;10168424;28;20496;-63
2022/04/27 21:14:27;;;;;;;8.20;2.65;;;;;;;9.98;100.00;102695.75;10167368;28;20077;-63
2022/04/27 21:19:25;;;;;;;7.63;2.28;;;;;;;10.02;100.00;102707.81;10195026;28;20099;-63
2022/04/27 21:24:22;;;;;;;11.57;2.85;;;;;;;9.82;100.00;102703.88;10194755;28;20494;-64
2022/04/27 21:29:20;;;;;;;11.40;2.75;;;;;;;9.78;100.00;102700.03;10195132;28;20054;-62
2022/04/27 21:34:16;;;;;;;13.63;2.60;;;;;;;9.82;100.00;102703.88;10179178;28;20050;-62
2022/04/27 21:39:13;;;;;;;8.93;2.20;;;;;;;9.69;100.00;102710.63;10194737;28;20046;-62
2022/04/27 21:44:10;;;;;;;14.00;3.30;;;;;;;9.66;100.00;102710.34;10172683;28;20049;-62
2022/04/27 21:49:06;;;;;;;11.32;2.47;;;;;;;9.62;100.00;102714.66;10194824;28;20072;-63
2022/04/27 21:54:03;;;;;;;13.20;2.63;;;;;;;9.53;100.00;102710.78;10193753;28;20435;-63
2022/04/27 21:58:59;;;;;;;11.18;2.63;;;;;;;9.52;100.00;102717.34;10187711;28;20042;-62
2022/04/27 22:09:16;;;;;;;7.63;2.13;;;;;;;9.35;100.00;102715.59;10172794;28;20092;-63
2022/04/27 22:14:13;;;;;;;14.48;3.15;;;;;;;9.36;100.00;102722.66;10163636;28;20089;-63
2022/04/27 22:19:10;;;;;;;12.48;2.40;;;;;;;9.40;100.00;102729.25;10162548;28;20512;-62
2022/04/27 22:24:07;;;;;;;16.48;2.72;;;;;;;9.31;100.00;102730.00;10156852;28;20050;-62
2022/04/27 22:29:03;;;;;;;9.80;2.70;;;;;;;9.13;100.00;102733.94;10154094;28;20051;-62
2022/04/27 22:34:00;;;;;;;10.73;2.35;;;;;;;9.11;100.00;102744.28;10163266;28;20054;-62
2022/04/27 22:38:57;;;;;;;7.90;2.22;;;;;;;9.06;100.00;102740.41;10201545;28;20411;-62
2022/04/27 22:43:53;;;;;;;12.00;2.75;;;;;;;9.08;100.00;102759.28;10179457;28;20149;-63
2022/04/27 22:48:52;;;;;;;16.50;2.75;;;;;;;8.96;100.00;102751.25;10201215;28;20117;-63
2022/04/27 22:53:48;;;;;;;14.75;3.17;;;;;;;8.89;100.00;102745.16;10169841;28;20050;-62
2022/04/27 22:58:48;;;;;;;8.57;2.38;;;;;;;8.89;100.00;102756.09;10200669;28;20104;-62
2022/04/27 23:03:44;;;;;;;11.45;2.85;;;;;;;8.89;100.00;102756.09;10200249;28;20077;-62
2022/04/27 23:13:56;;;;;;;13.45;4.25;;;;;;;8.76;100.00;102760.00;10167615;28;20046;-63
2022/04/27 23:18:54;;;;;;;11.88;2.90;;;;;;;8.64;100.00;102757.44;10175665;28;20100;-62
2022/04/27 23:23:51;;;;;;;8.57;2.80;;;;;;;8.64;100.00;102760.16;10166565;28;20084;-62
2022/04/27 23:28:48;;;;;;;12.23;3.35;;;;;;;8.53;100.00;102758.38;10199473;28;20104;-62
2022/04/27 23:33:45;;;;;;;12.25;3.92;;;;;;;8.60;100.00;102759.00;10194747;28;20465;-63
2022/04/27 23:38:42;;;;;;;8.90;2.72;;;;;;;8.57;100.00;102754.06;10159449;28;20073;-63
2022/04/27 23:43:43;;;;;;;10.13;3.88;;;;;;;8.51;100.00;102757.81;10164383;28;20477;-63
2022/04/27 23:48:40;;;;;;;13.20;3.60;;;;;;;8.41;100.00;102749.50;10197279;28;20451;-62
2022/04/27 23:53:38;;;;;;;13.05;3.47;;;;;;;8.49;100.00;102756.41;10198630;28;20046;-63